Time;durP1;ratioP1;P1;durP2;ratioP2;P2;SDS_P1;SDS_P2;PMS_P1;PMS_P2;Temp;Humidity;BMP_temperature;BMP_pressure;BME280_temperature;BME280_humidity;BME280_pressure;Samples;Min_cycle;Max_cycle;Signal;HPM_P1;HPM_P2
2023/08/15 00:03:19;;;;;;;0.17;0.10;;;;;;;30.67;100.00;101140.63;10421076;28;20522;-81
2023/08/15 00:08:21;;;;;;;0.10;0.00;;;;;;;30.50;100.00;101138.91;10424438;28;20057;-81
2023/08/15 00:13:22;;;;;;;0.17;0.10;;;;;;;31.17;100.00;101138.75;10412950;28;20068;-81
2023/08/15 00:18:24;;;;;;;0.32;0.20;;;;;;;30.94;100.00;101137.34;10411646;28;20049;-81
2023/08/15 00:23:25;;;;;;;0.30;0.10;;;;;;;30.94;100.00;101131.19;10400580;28;20042;-81
2023/08/15 00:28:27;;;;;;;0.17;0.10;;;;;;;30.80;100.00;101134.59;10411613;28;20053;-81
2023/08/15 00:33:29;;;;;;;0.50;0.30;;;;;;;31.38;100.00;101133.13;10400340;28;20049;-81
2023/08/15 00:38:30;;;;;;;0.30;0.28;;;;;;;31.24;100.00;101123.25;10412182;28;20049;-81
2023/08/15 00:43:33;;;;;;;0.00;0.00;;;;;;;31.61;100.00;101121.09;10409863;28;20046;-81
2023/08/15 00:48:36;;;;;;;0.20;0.13;;;;;;;31.39;100.00;101120.69;10394775;28;20049;-81
2023/08/15 00:53:38;;;;;;;0.17;0.17;;;;;;;31.50;100.00;101118.22;10428504;28;20049;-81
2023/08/15 00:58:41;;;;;;;0.38;0.17;;;;;;;31.72;100.00;101095.66;10412054;28;20099;-81
2023/08/15 01:03:44;;;;;;;0.00;0.00;;;;;;;31.87;100.00;101110.72;10404725;28;20037;-80
2023/08/15 01:08:47;;;;;;;0.00;0.00;;;;;;;32.07;100.00;101119.28;10412273;28;20496;-81
2023/08/15 01:14:02;;;;;;;0.22;0.15;;;;;;;31.48;100.00;101110.34;10420467;28;20045;-80
2023/08/15 01:19:15;;;;;;;0.25;0.10;;;;;;;31.16;100.00;101106.91;10399040;28;20065;-80
2023/08/15 01:24:18;;;;;;;0.68;0.50;;;;;;;31.73;100.00;101097.38;10405322;28;20045;-80
2023/08/15 01:29:19;;;;;;;0.10;0.10;;;;;;;31.65;100.00;101095.13;10411660;28;20053;-81
2023/08/15 01:34:35;;;;;;;0.40;0.25;;;;;;;30.83;100.00;101094.56;10385901;28;20054;-81
2023/08/15 01:39:40;;;;;;;0.10;0.10;;;;;;;31.75;100.00;101085.69;10427373;28;20049;-80
2023/08/15 01:44:42;;;;;;;0.10;0.10;;;;;;;31.40;100.00;101070.00;10409406;28;20399;-80
2023/08/15 01:49:44;;;;;;;0.20;0.20;;;;;;;30.70;100.00;101058.03;10408750;28;20045;-81
2023/08/15 01:54:46;;;;;;;0.98;0.20;;;;;;;30.68;100.00;101067.88;10416509;28;20041;-81
2023/08/15 01:59:47;;;;;;;0.10;0.10;;;;;;;30.49;100.00;101073.34;10435050;28;20415;-81
2023/08/15 02:04:49;;;;;;;0.00;0.00;;;;;;;30.21;100.00;101079.31;10410302;28;20050;-81
2023/08/15 02:09:51;;;;;;;0.43;0.40;;;;;;;29.70;100.00;101085.50;10410684;28;20455;-81
2023/08/15 02:14:53;;;;;;;0.40;0.30;;;;;;;30.00;100.00;101076.88;10418644;28;20489;-81
2023/08/15 02:19:55;;;;;;;0.00;0.00;;;;;;;30.51;100.00;101092.75;10417112;28;20052;-81
2023/08/15 02:24:56;;;;;;;0.40;0.20;;;;;;;29.79;100.00;101099.22;10416527;28;20056;-81
2023/08/15 02:30:00;;;;;;;0.35;0.35;;;;;;;30.46;100.00;101109.88;10400500;28;20405;-81
2023/08/15 02:35:02;;;;;;;0.28;0.28;;;;;;;30.61;100.00;101109.06;10416856;28;20048;-81
2023/08/15 02:40:06;;;;;;;2.40;0.20;;;;;;;30.60;100.00;101123.28;10400164;28;20049;-81
2023/08/15 02:45:08;;;;;;;0.57;0.57;;;;;;;30.25;100.00;101115.41;10416607;28;20571;-81
2023/08/15 02:50:10;;;;;;;0.68;0.10;;;;;;;29.40;100.00;101125.94;10416007;28;20492;-81
2023/08/15 02:55:11;;;;;;;0.43;0.13;;;;;;;29.83;100.00;101109.59;10399917;28;20045;-83
2023/08/15 03:00:13;;;;;;;0.70;0.35;;;;;;;30.23;100.00;101111.97;10416472;28;20080;-81
2023/08/15 03:05:15;;;;;;;0.52;0.43;;;;;;;29.87;100.00;101119.13;10410752;28;20041;-81
2023/08/15 03:10:17;;;;;;;0.52;0.32;;;;;;;29.90;100.00;101121.63;10415905;28;20539;-81
2023/08/15 03:15:20;;;;;;;0.35;0.30;;;;;;;30.92;100.00;101123.28;10411658;28;20073;-81
2023/08/15 03:20:22;;;;;;;0.15;0.15;;;;;;;30.61;100.00;101119.69;10398527;28;20072;-81
2023/08/15 03:25:24;;;;;;;1.27;0.40;;;;;;;30.85;100.00;101117.47;10414678;28;20038;-81
2023/08/15 03:30:26;;;;;;;0.45;0.35;;;;;;;30.45;100.00;101124.97;10401641;28;20041;-81
2023/08/15 03:35:28;;;;;;;0.20;0.20;;;;;;;30.93;100.00;101130.34;10426928;28;20054;-81
2023/08/15 03:40:30;;;;;;;0.57;0.35;;;;;;;30.88;100.00;101111.09;10398389;28;20469;-81
2023/08/15 03:45:31;;;;;;;0.05;0.05;;;;;;;31.40;100.00;101122.38;10394770;28;20045;-81
2023/08/15 03:50:34;;;;;;;0.50;0.30;;;;;;;30.81;100.00;101118.59;10425309;28;20057;-81
2023/08/15 03:55:36;;;;;;;0.25;0.25;;;;;;;30.73;100.00;101117.28;10401266;28;20049;-81
2023/08/15 04:00:38;;;;;;;0.40;0.20;;;;;;;30.95;100.00;101107.16;10403908;28;20475;-81
2023/08/15 04:05:43;;;;;;;0.70;0.30;;;;;;;30.88;100.00;101105.78;10414799;28;20052;-81
2023/08/15 04:10:46;;;;;;;0.47;0.40;;;;;;;31.16;100.00;101109.56;10413938;28;20492;-81
2023/08/15 04:15:47;;;;;;;1.27;1.02;;;;;;;31.25;100.00;101109.00;10427357;28;20042;-81
2023/08/15 04:20:52;;;;;;;0.82;0.50;;;;;;;30.62;100.00;101121.41;10387925;28;20427;-81
2023/08/15 04:25:55;;;;;;;0.20;0.10;;;;;;;29.53;100.00;101125.31;10391202;28;20129;-82
2023/08/15 04:30:56;;;;;;;2.55;1.27;;;;;;;29.36;100.00;101134.13;10401216;28;20511;-81
2023/08/15 04:35:58;;;;;;;0.38;0.30;;;;;;;29.19;100.00;101142.88;10412901;28;20489;-83
2023/08/15 04:40:59;;;;;;;0.55;0.35;;;;;;;28.91;100.00;101160.97;10388999;28;20053;-81
2023/08/15 04:46:01;;;;;;;0.47;0.32;;;;;;;28.68;100.00;101185.91;10396501;28;20091;-82
2023/08/15 04:51:03;;;;;;;0.30;0.30;;;;;;;29.31;100.00;101190.06;10395576;28;20125;-81
2023/08/15 04:56:06;;;;;;;0.90;0.85;;;;;;;28.87;100.00;101195.66;10409786;28;20053;-81
2023/08/15 05:01:07;;;;;;;0.20;0.15;;;;;;;28.96;100.00;101216.47;10403410;28;20045;-81
2023/08/15 05:06:09;;;;;;;0.40;0.03;;;;;;;29.17;100.00;101240.25;10411892;28;20426;-81
2023/08/15 05:11:11;;;;;;;0.00;0.00;;;;;;;29.54;100.00;101254.44;10391213;28;20140;-81
2023/08/15 05:16:13;;;;;;;0.10;0.10;;;;;;;28.77;100.00;101251.78;10411557;28;20038;-81
2023/08/15 05:21:15;;;;;;;0.10;0.10;;;;;;;28.97;100.00;101260.63;10393559;28;20063;-81
2023/08/15 05:26:17;;;;;;;0.00;0.00;;;;;;;29.63;100.00;101272.56;10393801;28;20041;-81
2023/08/15 05:31:19;;;;;;;0.45;0.30;;;;;;;29.21;100.00;101293.09;10389179;28;20452;-81
2023/08/15 05:36:21;;;;;;;0.17;0.17;;;;;;;29.05;100.00;101289.41;10410927;28;20427;-81
2023/08/15 05:41:23;;;;;;;0.10;0.10;;;;;;;28.72;100.00;101287.38;10410808;28;20049;-81
2023/08/15 05:46:24;;;;;;;0.75;0.47;;;;;;;29.15;100.00;101289.88;10410526;28;20144;-81
2023/08/15 05:51:26;;;;;;;0.00;0.00;;;;;;;28.93;100.00;101307.63;10404234;28;20045;-81
2023/08/15 05:56:28;;;;;;;2.75;0.35;;;;;;;28.89;100.00;101310.47;10392765;28;20071;-80
2023/08/15 06:01:29;;;;;;;0.10;0.08;;;;;;;29.74;100.00;101320.72;10408076;28;20815;-80
2023/08/15 06:06:31;;;;;;;0.10;0.10;;;;;;;29.41;100.00;101313.44;10409137;28;20497;-81
2023/08/15 06:11:32;;;;;;;0.10;0.10;;;;;;;29.76;100.00;101308.22;10408571;28;20075;-80
2023/08/15 06:16:34;;;;;;;0.00;0.00;;;;;;;30.69;100.00;101314.25;10410836;28;20048;-81
2023/08/15 06:21:36;;;;;;;0.05;0.00;;;;;;;30.20;100.00;101327.34;10393574;28;20132;-82
2023/08/15 06:26:38;;;;;;;0.00;0.00;;;;;;;29.81;100.00;101336.34;10401541;28;20129;-82
2023/08/15 06:31:40;;;;;;;0.17;0.17;;;;;;;29.26;100.00;101335.34;10409653;28;20050;-82
2023/08/15 06:36:41;;;;;;;0.00;0.00;;;;;;;30.52;100.00;101352.34;10422908;28;20060;-81
2023/08/15 06:42:11;;;;;;;0.10;0.10;;;;;;;30.21;100.00;101358.31;10413844;28;20049;-81
2023/08/15 06:47:13;;;;;;;0.17;0.17;;;;;;;30.31;100.00;101359.59;10408748;28;20042;-81
2023/08/15 06:52:19;;;;;;;0.30;0.17;;;;;;;31.47;100.00;101347.38;10414794;28;20045;-82
2023/08/15 06:57:20;;;;;;;0.00;0.00;;;;;;;30.68;100.00;101364.88;10407981;28;20042;-80
2023/08/15 07:02:22;;;;;;;0.17;0.08;;;;;;;30.60;100.00;101362.59;10410723;28;20053;-80
2023/08/15 07:07:24;;;;;;;0.00;0.00;;;;;;;31.38;100.00;101359.38;10432946;28;20045;-80
2023/08/15 07:12:28;;;;;;;0.30;0.30;;;;;;;31.80;100.00;101354.44;10396914;28;20177;-80
2023/08/15 07:17:30;;;;;;;0.10;0.00;;;;;;;32.09;100.00;101360.78;10414967;28;20049;-81
2023/08/15 07:22:32;;;;;;;0.00;0.00;;;;;;;31.74;100.00;101360.13;10401374;28;20108;-80
2023/08/15 07:27:34;;;;;;;0.10;0.00;;;;;;;32.40;100.00;101374.13;10413467;28;20068;-80
2023/08/15 07:32:38;;;;;;;0.00;0.00;;;;;;;33.36;100.00;101374.53;10412840;28;20045;-79
2023/08/15 07:37:40;;;;;;;0.52;0.30;;;;;;;32.62;100.00;101372.84;10402847;28;20076;-80
2023/08/15 07:42:43;;;;;;;0.00;0.00;;;;;;;33.04;100.00;101374.75;10403307;28;20057;-81
2023/08/15 07:47:45;;;;;;;0.00;0.00;;;;;;;32.77;100.00;101393.28;10405776;28;20041;-80
2023/08/15 07:52:47;;;;;;;0.00;0.00;;;;;;;33.21;100.00;101391.53;10385385;28;20072;-81
2023/08/15 07:57:48;;;;;;;0.50;0.10;;;;;;;33.44;100.00;101398.09;10392381;28;20045;-82
2023/08/15 08:02:50;;;;;;;0.00;0.00;;;;;;;32.20;100.00;101389.47;10445278;28;20045;-82
2023/08/15 08:07:52;;;;;;;0.00;0.00;;;;;;;32.92;100.00;101395.97;10411882;28;20037;-82
2023/08/15 08:12:54;;;;;;;0.32;0.32;;;;;;;32.79;100.00;101407.41;10428325;28;20056;-82
2023/08/15 08:17:55;;;;;;;0.03;0.03;;;;;;;34.07;100.00;101417.25;10414052;28;20158;-82
2023/08/15 08:22:57;;;;;;;0.47;0.20;;;;;;;34.52;100.00;101424.13;10396916;28;20049;-82
2023/08/15 08:27:59;;;;;;;0.30;0.10;;;;;;;34.87;100.00;101429.75;10396664;28;20045;-83
2023/08/15 08:33:00;;;;;;;0.00;0.00;;;;;;;34.37;100.00;101426.88;10387922;28;20417;-82
2023/08/15 08:38:03;;;;;;;0.22;0.00;;;;;;;33.60;100.00;101429.19;10412748;28;20045;-83
2023/08/15 08:43:05;;;;;;;2.90;0.82;;;;;;;34.75;100.00;101433.28;10396949;28;20050;-83
2023/08/15 08:48:08;;;;;;;0.00;0.00;;;;;;;34.37;100.00;101429.56;10408835;28;20029;-82
2023/08/15 08:53:11;;;;;;;0.00;0.00;;;;;;;34.85;100.00;101436.19;10411102;28;20048;-81
2023/08/15 08:58:12;;;;;;;0.00;0.00;;;;;;;33.87;100.00;101433.72;10411585;28;20133;-82
2023/08/15 09:03:14;;;;;;;0.00;0.00;;;;;;;34.36;100.00;101438.53;10404270;28;20448;-82
2023/08/15 09:08:16;;;;;;;0.00;0.00;;;;;;;33.95;100.00;101434.09;10394290;28;20049;-82
2023/08/15 09:13:24;;;;;;;1.40;0.32;;;;;;;35.50;100.00;101450.44;10412462;28;20045;-82
2023/08/15 09:18:26;;;;;;;0.68;0.30;;;;;;;35.72;100.00;101455.97;10396097;28;20041;-83
2023/08/15 09:23:31;;;;;;;0.10;0.10;;;;;;;34.39;100.00;101456.22;10412549;28;20095;-82
2023/08/15 09:28:40;;;;;;;0.00;0.00;;;;;;;34.96;100.00;101457.75;10394809;28;20049;-84
2023/08/15 09:33:42;;;;;;;0.00;0.00;;;;;;;34.90;100.00;101466.19;10409620;28;20119;-82
2023/08/15 09:38:44;;;;;;;0.00;0.00;;;;;;;35.91;100.00;101465.41;10410280;28;20045;-83
2023/08/15 09:43:52;;;;;;;0.22;0.15;;;;;;;35.35;100.00;101463.94;10397800;28;20052;-83
2023/08/15 09:48:54;;;;;;;;;;;;;;;35.41;100.00;101474.25;10412016;28;20045;-82
2023/08/15 09:53:57;;;;;;;0.73;0.30;;;;;;;34.82;100.00;101479.19;10422578;28;19920;-82
2023/08/15 09:58:59;;;;;;;0.00;0.00;;;;;;;35.22;100.00;101479.16;10404984;28;20042;-83
2023/08/15 10:04:07;;;;;;;0.73;0.40;;;;;;;34.82;100.00;101487.22;10410539;28;20041;-83
2023/08/15 10:09:11;;;;;;;0.00;0.00;;;;;;;35.14;100.00;101503.81;10394692;28;20041;-82
2023/08/15 10:14:18;;;;;;;1.02;0.10;;;;;;;35.47;100.00;101512.31;10396761;28;20512;-83
2023/08/15 10:19:20;;;;;;;2.63;0.75;;;;;;;35.27;100.00;101506.47;10417780;28;20055;-83
2023/08/15 10:24:22;;;;;;;0.30;0.15;;;;;;;35.42;100.00;101513.47;10417469;28;20046;-82
2023/08/15 10:29:25;;;;;;;0.22;0.15;;;;;;;35.73;100.00;101527.38;10414605;28;20485;-83
2023/08/15 10:34:31;;;;;;;0.40;0.35;;;;;;;35.13;100.00;101528.00;10445250;28;20041;-82
2023/08/15 10:39:37;;;;;;;0.17;0.15;;;;;;;36.29;100.00;101534.13;10417624;28;20076;-81
2023/08/15 10:44:38;;;;;;;1.48;0.40;;;;;;;36.43;100.00;101529.59;10417939;28;20420;-82
2023/08/15 10:49:40;;;;;;;0.43;0.20;;;;;;;36.06;100.00;101533.13;10410109;28;20041;-82
2023/08/15 10:54:42;;;;;;;0.30;0.10;;;;;;;34.39;100.00;101542.66;10414165;28;20049;-83
2023/08/15 10:59:43;;;;;;;0.03;0.03;;;;;;;32.87;100.00;101532.34;10414935;28;20428;-83
2023/08/15 11:04:45;;;;;;;0.13;0.08;;;;;;;33.11;100.00;101524.69;10416572;28;20136;-82
2023/08/15 11:10:06;;;;;;;0.10;0.00;;;;;;;32.81;100.00;101530.88;10409629;28;20065;-82
2023/08/15 11:15:09;;;;;;;0.08;0.08;;;;;;;33.39;100.00;101523.06;10409935;28;20497;-84
2023/08/15 11:20:11;;;;;;;0.20;0.20;;;;;;;32.84;100.00;101520.03;10412689;28;20790;-82
2023/08/15 11:25:12;;;;;;;0.22;0.13;;;;;;;33.89;100.00;101536.91;10416396;28;20033;-82
2023/08/15 11:30:14;;;;;;;0.00;0.00;;;;;;;33.14;100.00;101534.34;10399708;28;20060;-83
2023/08/15 11:35:16;;;;;;;0.88;0.65;;;;;;;33.59;100.00;101534.31;10394665;28;20049;-82
2023/08/15 11:40:18;;;;;;;0.00;0.00;;;;;;;32.79;100.00;101535.47;10415846;28;20045;-83
2023/08/15 11:45:22;;;;;;;0.10;0.10;;;;;;;32.27;100.00;101545.47;10400137;28;20045;-81
2023/08/15 11:50:27;;;;;;;0.00;0.00;;;;;;;31.89;100.00;101535.09;10396355;28;20443;-81
2023/08/15 11:55:46;;;;;;;0.10;0.10;;;;;;;32.51;100.00;101542.34;10401633;28;20045;-82
2023/08/15 12:00:50;;;;;;;0.17;0.10;;;;;;;32.71;100.00;101537.69;10415594;28;20053;-82
2023/08/15 12:05:55;;;;;;;0.00;0.00;;;;;;;32.88;100.00;101545.59;10419575;28;20053;-82
2023/08/15 12:10:58;;;;;;;0.45;0.22;;;;;;;32.89;100.00;101547.31;10426159;28;20056;-82
2023/08/15 12:16:02;;;;;;;0.10;0.10;;;;;;;32.56;100.00;101539.41;10388975;28;20081;-80
2023/08/15 12:21:04;;;;;;;0.20;0.10;;;;;;;32.66;100.00;101531.75;10413895;28;20076;-79
2023/08/15 12:26:06;;;;;;;0.10;0.10;;;;;;;33.29;100.00;101540.53;10443904;28;20051;-80
2023/08/15 12:31:08;;;;;;;0.17;0.17;;;;;;;33.14;100.00;101537.84;10415199;28;20132;-80
2023/08/15 12:36:09;;;;;;;0.10;0.10;;;;;;;32.53;100.00;101545.78;10404374;28;20065;-80
2023/08/15 12:41:13;;;;;;;0.00;0.00;;;;;;;32.96;100.00;101557.63;10409945;28;20052;-80
2023/08/15 12:46:15;;;;;;;2.17;0.32;;;;;;;32.71;100.00;101549.22;10413140;28;20056;-80
2023/08/15 12:51:17;;;;;;;0.50;0.30;;;;;;;32.33;100.00;101543.41;10412213;28;20506;-80
2023/08/15 12:56:19;;;;;;;0.25;0.08;;;;;;;33.18;100.00;101547.38;10408551;28;20041;-81
2023/08/15 13:01:21;;;;;;;0.50;0.40;;;;;;;33.04;100.00;101542.00;10388909;28;20053;-81
2023/08/15 13:06:23;;;;;;;0.30;0.10;;;;;;;33.96;100.00;101553.41;10408073;28;20048;-79
2023/08/15 13:11:25;;;;;;;0.10;0.10;;;;;;;33.57;100.00;101542.44;10395386;28;20057;-80
2023/08/15 13:16:26;;;;;;;0.38;0.22;;;;;;;33.59;100.00;101550.34;10387330;28;20071;-81
2023/08/15 13:21:28;;;;;;;0.43;0.20;;;;;;;33.81;100.00;101544.50;10384234;28;20049;-83
2023/08/15 13:26:30;;;;;;;0.95;0.43;;;;;;;33.71;100.00;101548.72;10412926;28;20411;-81
2023/08/15 13:31:31;;;;;;;0.00;0.00;;;;;;;32.97;100.00;101543.31;10411539;28;20539;-82
2023/08/15 13:36:33;;;;;;;0.50;0.40;;;;;;;33.05;100.00;101539.28;10412004;28;20050;-81
2023/08/15 13:41:35;;;;;;;0.32;0.20;;;;;;;33.46;100.00;101544.88;10407739;28;20049;-81
2023/08/15 13:46:36;;;;;;;0.35;0.25;;;;;;;33.05;100.00;101549.94;10395268;28;20073;-81
2023/08/15 13:51:38;;;;;;;0.40;0.10;;;;;;;33.80;100.00;101542.81;10402905;28;20116;-82
2023/08/15 13:56:43;;;;;;;0.10;0.03;;;;;;;33.60;100.00;101544.06;10412422;28;20044;-82
2023/08/15 14:01:45;;;;;;;0.47;0.10;;;;;;;33.29;100.00;101545.88;10419595;28;20523;-81
2023/08/15 14:06:47;;;;;;;0.20;0.03;;;;;;;34.50;100.00;101549.13;10419802;28;20427;-81
2023/08/15 14:11:48;;;;;;;0.10;0.10;;;;;;;34.45;100.00;101542.25;10389584;28;20056;-82
2023/08/15 14:16:51;;;;;;;0.90;0.38;;;;;;;32.79;100.00;101542.59;10404704;28;20396;-81
2023/08/15 14:21:53;;;;;;;0.52;0.40;;;;;;;33.25;100.00;101547.03;10420906;28;20041;-83
2023/08/15 14:26:55;;;;;;;0.70;0.40;;;;;;;34.06;100.00;101538.53;10419949;28;20136;-82
2023/08/15 14:31:57;;;;;;;0.10;0.10;;;;;;;33.78;100.00;101545.56;10419380;28;20042;-80
2023/08/15 14:36:58;;;;;;;0.10;0.10;;;;;;;33.50;100.00;101539.25;10402765;28;20136;-81
2023/08/15 14:42:00;;;;;;;0.13;0.13;;;;;;;32.96;100.00;101537.13;10420319;28;20041;-82
2023/08/15 14:47:02;;;;;;;0.03;0.03;;;;;;;32.62;100.00;101527.53;10419300;28;20044;-82
2023/08/15 14:52:03;;;;;;;0.38;0.30;;;;;;;32.70;100.00;101527.97;10418960;28;20050;-82
2023/08/15 14:57:05;;;;;;;0.45;0.45;;;;;;;33.18;100.00;101536.69;10419592;28;20080;-82
2023/08/15 15:02:07;;;;;;;0.30;0.30;;;;;;;33.71;100.00;101528.19;10406539;28;20054;-81
2023/08/15 15:07:09;;;;;;;0.55;0.52;;;;;;;34.38;100.00;101530.25;10418612;28;20052;-80
2023/08/15 15:12:10;;;;;;;1.33;0.40;;;;;;;34.08;100.00;101530.38;10378145;28;20050;-81
2023/08/15 15:17:12;;;;;;;0.20;0.20;;;;;;;34.42;100.00;101529.09;10447903;28;20052;-82
2023/08/15 15:22:13;;;;;;;0.10;0.10;;;;;;;33.13;100.00;101535.28;10417911;28;20552;-83
2023/08/15 15:27:15;;;;;;;0.55;0.40;;;;;;;33.19;100.00;101533.09;10391231;28;20073;-83
2023/08/15 15:32:17;;;;;;;0.03;0.03;;;;;;;33.33;100.00;101544.78;10418127;28;20053;-83
2023/08/15 15:37:18;;;;;;;0.20;0.20;;;;;;;34.39;100.00;101544.50;10417974;28;20045;-82
2023/08/15 15:42:21;;;;;;;0.13;0.10;;;;;;;33.40;100.00;101546.09;10417733;28;20049;-83
2023/08/15 15:47:23;;;;;;;0.45;0.35;;;;;;;33.61;100.00;101548.44;10401423;28;20481;-82
2023/08/15 15:52:25;;;;;;;0.20;0.20;;;;;;;32.55;100.00;101546.56;10417374;28;20424;-82
2023/08/15 15:57:27;;;;;;;0.13;0.13;;;;;;;33.50;100.00;101557.97;10401765;28;20046;-82
2023/08/15 16:02:28;;;;;;;0.30;0.30;;;;;;;33.43;100.00;101550.44;10392525;28;20060;-82
2023/08/15 16:07:31;;;;;;;0.20;0.10;;;;;;;33.69;100.00;101554.16;10394734;28;20157;-82
2023/08/15 16:12:32;;;;;;;0.05;0.05;;;;;;;33.53;100.00;101560.47;10416255;28;20073;-82
2023/08/15 16:17:34;;;;;;;0.08;0.08;;;;;;;32.72;100.00;101556.25;10409496;28;20046;-82
2023/08/15 16:22:36;;;;;;;0.20;0.20;;;;;;;32.81;100.00;101559.38;10415905;28;20061;-82
2023/08/15 16:27:38;;;;;;;0.05;0.05;;;;;;;32.28;100.00;101563.16;10414340;28;20049;-82
2023/08/15 16:32:40;;;;;;;0.10;0.10;;;;;;;33.28;100.00;101557.50;10416022;28;20108;-82
2023/08/15 16:37:41;;;;;;;0.35;0.35;;;;;;;32.95;100.00;101566.59;10415748;28;20079;-83
2023/08/15 16:42:43;;;;;;;0.52;0.22;;;;;;;32.78;100.00;101567.56;10400090;28;20053;-82
2023/08/15 16:47:45;;;;;;;0.30;0.20;;;;;;;33.13;100.00;101565.50;10411438;28;20041;-83
2023/08/15 16:52:46;;;;;;;1.67;0.93;;;;;;;32.63;100.00;101571.94;10414407;28;20143;-85
2023/08/15 16:57:48;;;;;;;0.45;0.38;;;;;;;32.82;100.00;101577.13;10415960;28;20037;-80
2023/08/15 17:02:50;;;;;;;0.17;0.10;;;;;;;33.20;100.00;101585.53;10415192;28;20508;-81
2023/08/15 17:07:52;;;;;;;0.20;0.10;;;;;;;33.09;100.00;101585.31;10414778;28;20099;-80
2023/08/15 17:12:54;;;;;;;0.05;0.05;;;;;;;33.46;100.00;101585.81;10414655;28;20049;-81
2023/08/15 17:17:56;;;;;;;0.03;0.00;;;;;;;32.89;100.00;101584.66;10414548;28;20095;-80
2023/08/15 17:22:57;;;;;;;0.05;0.00;;;;;;;33.60;100.00;101584.13;10415869;28;20439;-80
2023/08/15 17:27:59;;;;;;;0.20;0.10;;;;;;;33.10;100.00;101594.19;10398041;28;20088;-81
2023/08/15 17:33:01;;;;;;;0.28;0.25;;;;;;;33.58;100.00;101596.69;10416414;28;20053;-79
2023/08/15 17:38:02;;;;;;;0.00;0.00;;;;;;;33.10;100.00;101608.38;10415257;28;20091;-81
2023/08/15 17:43:04;;;;;;;0.00;0.00;;;;;;;32.57;100.00;101606.03;10397928;28;20059;-81
2023/08/15 17:48:06;;;;;;;0.32;0.20;;;;;;;32.34;100.00;101604.63;10414038;28;20477;-80
2023/08/15 17:53:08;;;;;;;0.20;0.10;;;;;;;30.79;100.00;101614.31;10430337;28;20408;-80
2023/08/15 17:58:09;;;;;;;0.05;0.05;;;;;;;31.77;100.00;101615.66;10413831;28;20048;-79
2023/08/15 18:03:11;;;;;;;0.00;0.00;;;;;;;30.90;100.00;101625.28;10397301;28;20053;-79
2023/08/15 18:08:13;;;;;;;0.00;0.00;;;;;;;31.13;100.00;101633.97;10397050;28;20080;-78
2023/08/15 18:13:14;;;;;;;0.00;0.00;;;;;;;31.04;100.00;101642.38;10413434;28;20054;-79
2023/08/15 18:18:16;;;;;;;0.00;0.00;;;;;;;31.36;100.00;101637.28;10413376;28;20038;-78
2023/08/15 18:23:17;;;;;;;0.00;0.00;;;;;;;30.93;100.00;101646.44;10396794;28;20060;-78
2023/08/15 18:28:19;;;;;;;4.80;0.30;;;;;;;31.32;100.00;101652.53;10413305;28;20056;-79
2023/08/15 18:33:21;;;;;;;0.38;0.20;;;;;;;29.18;100.00;101653.19;10413787;28;20037;-80
2023/08/15 18:38:23;;;;;;;0.45;0.10;;;;;;;28.69;100.00;101663.91;10420728;28;20046;-79
2023/08/15 18:43:24;;;;;;;0.10;0.10;;;;;;;28.70;100.00;101665.69;10422027;28;20500;-79
2023/08/15 18:48:26;;;;;;;0.25;0.17;;;;;;;28.34;100.00;101682.88;10421598;28;20041;-78
2023/08/15 18:53:28;;;;;;;0.40;0.30;;;;;;;27.83;100.00;101690.81;10419798;28;20041;-79
2023/08/15 18:58:29;;;;;;;0.30;0.10;;;;;;;27.78;100.00;101703.34;10420085;28;20053;-80
2023/08/15 19:03:31;;;;;;;0.05;0.03;;;;;;;27.69;100.00;101714.25;10419900;28;20049;-79
2023/08/15 19:08:35;;;;;;;0.22;0.10;;;;;;;27.28;100.00;101724.38;10403071;28;20144;-79
2023/08/15 19:13:37;;;;;;;0.10;0.10;;;;;;;27.47;100.00;101736.13;10419272;28;20059;-79
2023/08/15 19:18:39;;;;;;;0.63;0.50;;;;;;;27.12;100.00;101737.19;10420349;28;20400;-78
2023/08/15 19:23:40;;;;;;;0.05;0.05;;;;;;;27.24;100.00;101740.31;10402705;28;20053;-79
2023/08/15 19:28:42;;;;;;;0.40;0.25;;;;;;;26.92;100.00;101754.53;10418730;28;20045;-78
2023/08/15 19:33:44;;;;;;;0.00;0.00;;;;;;;27.14;100.00;101765.34;10418602;28;20403;-78
2023/08/15 19:38:45;;;;;;;0.00;0.00;;;;;;;27.36;100.00;101768.19;10419651;28;20049;-79
2023/08/15 19:43:47;;;;;;;0.90;0.73;;;;;;;25.67;100.00;101771.84;10418009;28;20187;-78
2023/08/15 19:48:48;;;;;;;0.10;0.10;;;;;;;25.70;100.00;101776.16;10400811;28;20038;-80
2023/08/15 19:53:50;;;;;;;0.00;0.00;;;;;;;26.13;100.00;101770.75;10417815;28;20049;-79
2023/08/15 19:58:52;;;;;;;0.00;0.00;;;;;;;25.75;100.00;101785.72;10417729;28;20042;-80
2023/08/15 20:03:53;;;;;;;0.00;0.00;;;;;;;26.39;100.00;101786.81;10401105;28;20056;-79
2023/08/15 20:08:55;;;;;;;0.10;0.10;;;;;;;25.99;100.00;101783.38;10417245;28;20050;-79
2023/08/15 20:13:56;;;;;;;0.00;0.00;;;;;;;26.77;100.00;101798.13;10417107;28;20060;-79
2023/08/15 20:18:58;;;;;;;0.00;0.00;;;;;;;26.49;100.00;101790.91;10416694;28;20400;-79
2023/08/15 20:24:00;;;;;;;0.05;0.05;;;;;;;25.89;100.00;101793.28;10416466;28;20411;-78
2023/08/15 20:29:02;;;;;;;0.15;0.10;;;;;;;26.69;100.00;101797.47;10416324;28;20083;-78
2023/08/15 20:34:04;;;;;;;0.00;0.00;;;;;;;26.65;100.00;101794.03;10416264;28;20052;-79
2023/08/15 20:39:05;;;;;;;0.47;0.10;;;;;;;26.69;100.00;101797.47;10432744;28;20056;-79
2023/08/15 20:44:07;;;;;;;0.00;0.00;;;;;;;26.77;100.00;101795.47;10376715;28;20064;-78
2023/08/15 20:49:09;;;;;;;0.10;0.10;;;;;;;27.18;100.00;101805.78;10391288;28;20045;-78
2023/08/15 20:54:11;;;;;;;0.00;0.00;;;;;;;26.21;100.00;101804.88;10374545;28;20058;-78
2023/08/15 20:59:12;;;;;;;0.10;0.10;;;;;;;26.72;100.00;101807.94;10403708;28;20041;-78
2023/08/15 21:04:14;;;;;;;0.00;0.00;;;;;;;27.32;100.00;101810.66;10415142;28;20058;-78
2023/08/15 21:09:15;;;;;;;0.00;0.00;;;;;;;25.43;100.00;101803.16;10415077;28;20041;-78
2023/08/15 21:14:17;;;;;;;0.00;0.00;;;;;;;26.26;100.00;101799.47;10414644;28;20400;-78
2023/08/15 21:19:19;;;;;;;0.00;0.00;;;;;;;26.80;100.00;101810.41;10414482;28;20048;-78
2023/08/15 21:24:21;;;;;;;0.00;0.00;;;;;;;27.19;100.00;101816.31;10398207;28;20049;-79
2023/08/15 21:29:23;;;;;;;0.00;0.00;;;;;;;26.93;100.00;101819.72;10414288;28;20045;-78
2023/08/15 21:34:24;;;;;;;0.00;0.00;;;;;;;26.23;100.00;101805.69;10398003;28;20049;-78
2023/08/15 21:39:26;;;;;;;0.00;0.00;;;;;;;26.92;100.00;101824.13;10397881;28;20041;-78
2023/08/15 21:44:27;;;;;;;0.00;0.00;;;;;;;26.72;100.00;101826.44;10397633;28;20501;-79
2023/08/15 21:49:29;;;;;;;0.00;0.00;;;;;;;26.57;100.00;101828.56;10397486;28;20056;-78
2023/08/15 21:54:31;;;;;;;0.00;0.00;;;;;;;25.59;100.00;101824.78;10397590;28;20053;-78
2023/08/15 21:59:33;;;;;;;0.10;0.00;;;;;;;26.37;100.00;101820.31;10413648;28;20485;-78
2023/08/15 22:04:34;;;;;;;0.00;0.00;;;;;;;27.01;100.00;101824.78;10397477;28;20049;-78
2023/08/15 22:09:36;;;;;;;0.00;0.00;;;;;;;26.81;100.00;101815.63;10416061;28;20037;-78
2023/08/15 22:14:37;;;;;;;0.00;0.00;;;;;;;26.84;100.00;101831.44;10405389;28;20050;-78
2023/08/15 22:19:39;;;;;;;0.00;0.00;;;;;;;26.48;100.00;101827.97;10421520;28;20037;-78
2023/08/15 22:24:40;;;;;;;0.00;0.00;;;;;;;25.97;100.00;101823.00;10421648;28;20516;-78
2023/08/15 22:29:51;;;;;;;1.55;0.08;;;;;;;26.79;100.00;101827.16;10422347;28;20038;-78
2023/08/15 22:34:52;;;;;;;0.00;0.00;;;;;;;26.79;100.00;101822.72;10404649;28;20497;-78
2023/08/15 22:39:54;;;;;;;0.08;0.00;;;;;;;26.94;100.00;101820.56;10404423;28;20049;-78
2023/08/15 22:44:56;;;;;;;0.00;0.00;;;;;;;25.81;100.00;101825.16;10421902;28;20045;-78
2023/08/15 22:49:57;;;;;;;0.00;0.00;;;;;;;25.84;100.00;101826.84;10420950;28;20404;-78
2023/08/15 22:54:59;;;;;;;0.25;0.10;;;;;;;26.18;100.00;101815.50;10403795;28;20413;-78